sensor_id;sensor_type;location;lat;lon;timestamp;pressure;altitude;pressure_sealevel;temperature;humidity
58239;BME280;44037;55.638;37.356;2023-04-30T00:01:32;99500.97;;;5.25;82.60
58239;BME280;44037;55.638;37.356;2023-04-30T00:03:59;99498.28;;;5.22;83.21
58239;BME280;44037;55.638;37.356;2023-04-30T00:06:26;99493.88;;;5.18;83.06
58239;BME280;44037;55.638;37.356;2023-04-30T00:08:53;99501.53;;;5.15;83.11
58239;BME280;44037;55.638;37.356;2023-04-30T00:11:20;99497.97;;;5.11;83.92
58239;BME280;44037;55.638;37.356;2023-04-30T00:13:48;99503.03;;;5.08;83.97
58239;BME280;44037;55.638;37.356;2023-04-30T00:16:15;99508.09;;;5.05;83.98
58239;BME280;44037;55.638;37.356;2023-04-30T00:18:44;99513.19;;;5.03;84.87
58239;BME280;44037;55.638;37.356;2023-04-30T00:21:11;99510.53;;;5.00;84.71
58239;BME280;44037;55.638;37.356;2023-04-30T00:23:38;99510.41;;;4.97;84.68
58239;BME280;44037;55.638;37.356;2023-04-30T00:26:05;99509.56;;;4.97;85.21
58239;BME280;44037;55.638;37.356;2023-04-30T00:28:32;99520.59;;;4.94;86.17
58239;BME280;44037;55.638;37.356;2023-04-30T00:31:00;99521.47;;;4.95;86.04
58239;BME280;44037;55.638;37.356;2023-04-30T00:33:27;99523.16;;;4.94;86.42
58239;BME280;44037;55.638;37.356;2023-04-30T00:35:56;99520.53;;;4.91;85.94
58239;BME280;44037;55.638;37.356;2023-04-30T00:38:23;99521.25;;;4.87;86.57
58239;BME280;44037;55.638;37.356;2023-04-30T00:40:51;99516.13;;;4.87;86.49
58239;BME280;44037;55.638;37.356;2023-04-30T00:43:18;99516.94;;;4.86;86.71
58239;BME280;44037;55.638;37.356;2023-04-30T00:45:45;99521.19;;;4.85;86.94
58239;BME280;44037;55.638;37.356;2023-04-30T00:48:13;99519.47;;;4.84;87.34
58239;BME280;44037;55.638;37.356;2023-04-30T00:50:43;99521.16;;;4.84;87.40
58239;BME280;44037;55.638;37.356;2023-04-30T00:53:11;99513.44;;;4.84;87.83
58239;BME280;44037;55.638;37.356;2023-04-30T00:55:39;99513.44;;;4.84;87.34
58239;BME280;44037;55.638;37.356;2023-04-30T00:58:07;99511.69;;;4.83;87.86
58239;BME280;44037;55.638;37.356;2023-04-30T01:00:34;99517.66;;;4.82;88.30
58239;BME280;44037;55.638;37.356;2023-04-30T01:03:01;99522.75;;;4.80;88.01
58239;BME280;44037;55.638;37.356;2023-04-30T01:05:29;99515.88;;;4.79;88.98
58239;BME280;44037;55.638;37.356;2023-04-30T01:07:57;99516.66;;;4.76;89.49
58239;BME280;44037;55.638;37.356;2023-04-30T01:10:29;99517.50;;;4.75;89.76
58239;BME280;44037;55.638;37.356;2023-04-30T01:13:03;99518.31;;;4.74;89.87
58239;BME280;44037;55.638;37.356;2023-04-30T01:15:37;99525.09;;;4.72;89.48
58239;BME280;44037;55.638;37.356;2023-04-30T01:18:10;99521.66;;;4.72;90.63
58239;BME280;44037;55.638;37.356;2023-04-30T01:20:45;99528.44;;;4.70;90.52
58239;BME280;44037;55.638;37.356;2023-04-30T01:23:26;99529.94;;;4.63;90.04
58239;BME280;44037;55.638;37.356;2023-04-30T01:26:10;99529.84;;;4.60;90.61
58239;BME280;44037;55.638;37.356;2023-04-30T01:28:39;99534.00;;;4.56;91.66
58239;BME280;44037;55.638;37.356;2023-04-30T01:31:12;99533.94;;;4.55;91.96
58239;BME280;44037;55.638;37.356;2023-04-30T01:33:40;99531.34;;;4.53;91.61
58239;BME280;44037;55.638;37.356;2023-04-30T01:36:20;99530.47;;;4.53;92.23
58239;BME280;44037;55.638;37.356;2023-04-30T01:39:07;99525.28;;;4.51;92.08
58239;BME280;44037;55.638;37.356;2023-04-30T01:41:48;99524.44;;;4.51;91.64
58239;BME280;44037;55.638;37.356;2023-04-30T01:44:28;99530.41;;;4.51;92.54
58239;BME280;44037;55.638;37.356;2023-04-30T01:47:06;99533.88;;;4.52;92.32
58239;BME280;44037;55.638;37.356;2023-04-30T01:49:41;99533.91;;;4.53;92.56
58239;BME280;44037;55.638;37.356;2023-04-30T01:52:20;99531.44;;;4.56;92.53
58239;BME280;44037;55.638;37.356;2023-04-30T01:54:52;99528.97;;;4.59;92.93
58239;BME280;44037;55.638;37.356;2023-04-30T01:57:27;99531.59;;;4.61;93.18
58239;BME280;44037;55.638;37.356;2023-04-30T01:59:57;99532.53;;;4.65;92.69
58239;BME280;44037;55.638;37.356;2023-04-30T02:02:24;99536.06;;;4.68;93.29
58239;BME280;44037;55.638;37.356;2023-04-30T02:04:51;99525.94;;;4.73;93.40
58239;BME280;44037;55.638;37.356;2023-04-30T02:07:27;99531.28;;;4.79;93.19
58239;BME280;44037;55.638;37.356;2023-04-30T02:09:58;99522.16;;;4.89;93.14
58239;BME280;44037;55.638;37.356;2023-04-30T02:12:25;99513.00;;;4.97;92.62
58239;BME280;44037;55.638;37.356;2023-04-30T02:14:56;99499.66;;;5.09;92.94
58239;BME280;44037;55.638;37.356;2023-04-30T02:17:23;99503.34;;;5.19;92.94
58239;BME280;44037;55.638;37.356;2023-04-30T02:19:50;99500.16;;;5.28;92.63
58239;BME280;44037;55.638;37.356;2023-04-30T02:22:17;99500.50;;;5.40;92.42
58239;BME280;44037;55.638;37.356;2023-04-30T02:24:44;99502.63;;;5.55;91.98
58239;BME280;44037;55.638;37.356;2023-04-30T02:27:12;99498.72;;;5.69;91.61
58239;BME280;44037;55.638;37.356;2023-04-30T02:29:39;99486.25;;;5.83;90.94
58239;BME280;44037;55.638;37.356;2023-04-30T02:32:07;99490.97;;;6.00;91.54
58239;BME280;44037;55.638;37.356;2023-04-30T02:34:35;99485.34;;;6.15;90.90
58239;BME280;44037;55.638;37.356;2023-04-30T02:37:02;99481.41;;;6.29;90.53
58239;BME280;44037;55.638;37.356;2023-04-30T02:39:29;99478.25;;;6.41;88.83
58239;BME280;44037;55.638;37.356;2023-04-30T02:41:56;99472.53;;;6.53;88.65
58239;BME280;44037;55.638;37.356;2023-04-30T02:44:23;99470.16;;;6.63;87.75
58239;BME280;44037;55.638;37.356;2023-04-30T02:46:50;99469.50;;;6.73;86.59
58239;BME280;44037;55.638;37.356;2023-04-30T02:49:19;99466.28;;;6.82;87.19
58239;BME280;44037;55.638;37.356;2023-04-30T02:51:46;99465.63;;;6.92;86.04
58239;BME280;44037;55.638;37.356;2023-04-30T02:54:13;99465.63;;;6.94;85.02
58239;BME280;44037;55.638;37.356;2023-04-30T02:56:41;99465.63;;;6.94;84.22
58239;BME280;44037;55.638;37.356;2023-04-30T02:59:09;99462.19;;;6.91;83.01
58239;BME280;44037;55.638;37.356;2023-04-30T03:01:36;99462.22;;;6.93;82.48
58239;BME280;44037;55.638;37.356;2023-04-30T03:04:03;99467.38;;;6.93;82.72
58239;BME280;44037;55.638;37.356;2023-04-30T03:06:32;99459.66;;;6.95;82.05
58239;BME280;44037;55.638;37.356;2023-04-30T03:09:00;99465.72;;;6.97;81.56
58239;BME280;44037;55.638;37.356;2023-04-30T03:11:27;99459.78;;;6.99;81.38
58239;BME280;44037;55.638;37.356;2023-04-30T03:13:54;99465.06;;;7.07;81.31
58239;BME280;44037;55.638;37.356;2023-04-30T03:16:21;99456.63;;;7.14;80.94
58239;BME280;44037;55.638;37.356;2023-04-30T03:18:48;99461.84;;;7.17;80.22
58239;BME280;44037;55.638;37.356;2023-04-30T03:21:16;99458.47;;;7.21;80.01
58239;BME280;44037;55.638;37.356;2023-04-30T03:23:45;99459.41;;;7.25;79.29
58239;BME280;44037;55.638;37.356;2023-04-30T03:26:12;99458.63;;;7.28;79.30
58239;BME280;44037;55.638;37.356;2023-04-30T03:28:40;99451.81;;;7.31;78.56
58239;BME280;44037;55.638;37.356;2023-04-30T03:31:07;99448.41;;;7.34;78.42
58239;BME280;44037;55.638;37.356;2023-04-30T03:33:34;99438.22;;;7.40;78.04
58239;BME280;44037;55.638;37.356;2023-04-30T03:36:01;99439.28;;;7.51;78.46
58239;BME280;44037;55.638;37.356;2023-04-30T03:38:29;99441.22;;;7.63;77.47
58239;BME280;44037;55.638;37.356;2023-04-30T03:40:57;99440.50;;;7.72;77.02
58239;BME280;44037;55.638;37.356;2023-04-30T03:43:24;99430.34;;;7.81;76.83
58239;BME280;44037;55.638;37.356;2023-04-30T03:45:51;99441.75;;;7.93;76.51
58239;BME280;44037;55.638;37.356;2023-04-30T03:48:19;99431.56;;;8.02;76.06
58239;BME280;44037;55.638;37.356;2023-04-30T03:50:46;99427.44;;;8.13;75.88
58239;BME280;44037;55.638;37.356;2023-04-30T03:53:13;99417.31;;;8.26;76.21
58239;BME280;44037;55.638;37.356;2023-04-30T03:55:40;99429.59;;;8.42;76.53
58239;BME280;44037;55.638;37.356;2023-04-30T03:58:09;99426.38;;;8.57;76.65
58239;BME280;44037;55.638;37.356;2023-04-30T04:00:37;99420.59;;;8.75;76.38
58239;BME280;44037;55.638;37.356;2023-04-30T04:03:06;99428.59;;;8.94;76.36
58239;BME280;44037;55.638;37.356;2023-04-30T04:05:33;99421.88;;;9.10;75.06
58239;BME280;44037;55.638;37.356;2023-04-30T04:08:00;99418.59;;;9.25;75.17
58239;BME280;44037;55.638;37.356;2023-04-30T04:10:27;99418.78;;;9.42;74.90
58239;BME280;44037;55.638;37.356;2023-04-30T04:12:54;99414.63;;;9.58;74.16
58239;BME280;44037;55.638;37.356;2023-04-30T04:15:23;99415.63;;;9.73;73.61
58239;BME280;44037;55.638;37.356;2023-04-30T04:17:50;99413.97;;;9.84;73.10
58239;BME280;44037;55.638;37.356;2023-04-30T04:20:17;99418.41;;;9.97;73.37
58239;BME280;44037;55.638;37.356;2023-04-30T04:22:45;99412.47;;;10.09;72.54
58239;BME280;44037;55.638;37.356;2023-04-30T04:25:12;99412.53;;;10.19;71.86
58239;BME280;44037;55.638;37.356;2023-04-30T04:27:39;99405.66;;;10.21;70.63
58239;BME280;44037;55.638;37.356;2023-04-30T04:30:07;99397.91;;;10.24;70.76
58239;BME280;44037;55.638;37.356;2023-04-30T04:32:36;99406.56;;;10.29;70.58
58239;BME280;44037;55.638;37.356;2023-04-30T04:35:12;99402.28;;;10.36;69.04
58239;BME280;44037;55.638;37.356;2023-04-30T04:37:39;99398.00;;;10.38;68.60
58239;BME280;44037;55.638;37.356;2023-04-30T04:40:07;99394.59;;;10.43;67.66
58239;BME280;44037;55.638;37.356;2023-04-30T04:42:35;99389.47;;;10.53;67.18
58239;BME280;44037;55.638;37.356;2023-04-30T04:45:03;99390.41;;;10.66;66.86
58239;BME280;44037;55.638;37.356;2023-04-30T04:47:31;99396.53;;;10.83;67.08
58239;BME280;44037;55.638;37.356;2023-04-30T04:50:00;99400.03;;;10.98;64.90
58239;BME280;44037;55.638;37.356;2023-04-30T04:52:29;99388.81;;;11.03;64.14
58239;BME280;44037;55.638;37.356;2023-04-30T04:54:56;99393.16;;;11.09;63.86
58239;BME280;44037;55.638;37.356;2023-04-30T04:57:23;99391.44;;;11.19;64.25
58239;BME280;44037;55.638;37.356;2023-04-30T04:59:50;99394.09;;;11.42;64.74
58239;BME280;44037;55.638;37.356;2023-04-30T05:02:18;99388.94;;;11.62;63.38
58239;BME280;44037;55.638;37.356;2023-04-30T05:04:45;99393.28;;;11.73;61.48
58239;BME280;44037;55.638;37.356;2023-04-30T05:07:16;99388.06;;;11.74;61.19
58239;BME280;44037;55.638;37.356;2023-04-30T05:09:43;99386.34;;;11.76;60.37
58239;BME280;44037;55.638;37.356;2023-04-30T05:12:11;99386.34;;;11.79;59.88
58239;BME280;44037;55.638;37.356;2023-04-30T05:14:38;99375.97;;;11.79;59.59
58239;BME280;44037;55.638;37.356;2023-04-30T05:17:06;99381.16;;;11.89;59.98
58239;BME280;44037;55.638;37.356;2023-04-30T05:19:33;99379.44;;;12.03;59.95
58239;BME280;44037;55.638;37.356;2023-04-30T05:22:00;99375.97;;;12.13;58.92
58239;BME280;44037;55.638;37.356;2023-04-30T05:24:29;99376.84;;;12.22;57.48
58239;BME280;44037;55.638;37.356;2023-04-30T05:26:56;99377.69;;;12.16;57.92
58239;BME280;44037;55.638;37.356;2023-04-30T05:29:23;99385.53;;;12.08;57.41
58239;BME280;44037;55.638;37.356;2023-04-30T05:31:50;99382.91;;;12.11;58.69
58239;BME280;44037;55.638;37.356;2023-04-30T05:34:18;99374.22;;;12.25;58.69
58239;BME280;44037;55.638;37.356;2023-04-30T05:36:45;99372.44;;;12.44;56.77
58239;BME280;44037;55.638;37.356;2023-04-30T05:39:13;99375.03;;;12.55;57.34
58239;BME280;44037;55.638;37.356;2023-04-30T05:41:41;99379.31;;;12.68;57.14
58239;BME280;44037;55.638;37.356;2023-04-30T05:44:08;99370.59;;;12.85;56.42
58239;BME280;44037;55.638;37.356;2023-04-30T05:46:35;99380.03;;;12.98;55.42
58239;BME280;44037;55.638;37.356;2023-04-30T05:49:03;99371.38;;;13.01;55.54
58239;BME280;44037;55.638;37.356;2023-04-30T05:51:30;99362.66;;;13.06;53.92
58239;BME280;44037;55.638;37.356;2023-04-30T05:53:57;99374.81;;;13.04;54.61
58239;BME280;44037;55.638;37.356;2023-04-30T05:56:25;99379.09;;;13.12;53.86
58239;BME280;44037;55.638;37.356;2023-04-30T05:58:53;99378.25;;;13.14;53.60
58239;BME280;44037;55.638;37.356;2023-04-30T06:01:21;99374.75;;;13.14;53.37
58239;BME280;44037;55.638;37.356;2023-04-30T06:03:48;99383.41;;;13.17;52.92
58239;BME280;44037;55.638;37.356;2023-04-30T06:06:15;99386.84;;;13.19;52.73
58239;BME280;44037;55.638;37.356;2023-04-30T06:08:42;99389.50;;;13.12;51.87
58239;BME280;44037;55.638;37.356;2023-04-30T06:11:10;99386.91;;;13.10;52.11
58239;BME280;44037;55.638;37.356;2023-04-30T06:13:38;99392.97;;;13.11;52.39
58239;BME280;44037;55.638;37.356;2023-04-30T06:16:07;99390.38;;;13.11;51.73
58239;BME280;44037;55.638;37.356;2023-04-30T06:18:34;99395.56;;;13.15;52.08
58239;BME280;44037;55.638;37.356;2023-04-30T06:21:02;99404.22;;;13.17;52.20
58239;BME280;44037;55.638;37.356;2023-04-30T06:23:29;99393.81;;;13.17;51.76
58239;BME280;44037;55.638;37.356;2023-04-30T06:25:56;99392.94;;;13.23;52.27
58239;BME280;44037;55.638;37.356;2023-04-30T06:28:23;99402.38;;;13.40;51.95
58239;BME280;44037;55.638;37.356;2023-04-30T06:30:51;99396.22;;;13.53;51.13
58239;BME280;44037;55.638;37.356;2023-04-30T06:33:20;99403.97;;;13.62;49.35
58239;BME280;44037;55.638;37.356;2023-04-30T06:35:47;99398.03;;;13.39;47.93
58239;BME280;44037;55.638;37.356;2023-04-30T06:38:15;99386.91;;;13.12;48.73
58239;BME280;44037;55.638;37.356;2023-04-30T06:40:44;99398.22;;;13.01;50.03
58239;BME280;44037;55.638;37.356;2023-04-30T06:43:11;99387.00;;;12.96;49.14
58239;BME280;44037;55.638;37.356;2023-04-30T06:45:38;99391.28;;;13.00;50.09
58239;BME280;44037;55.638;37.356;2023-04-30T06:48:05;99390.41;;;13.06;48.98
58239;BME280;44037;55.638;37.356;2023-04-30T06:50:34;99384.31;;;13.12;49.04
58239;BME280;44037;55.638;37.356;2023-04-30T06:53:08;99374.75;;;13.11;49.42
58239;BME280;44037;55.638;37.356;2023-04-30T06:55:35;99373.03;;;13.11;48.71
58239;BME280;44037;55.638;37.356;2023-04-30T06:58:02;99373.88;;;13.15;47.38
58239;BME280;44037;55.638;37.356;2023-04-30T07:00:30;99366.09;;;13.15;46.77
58239;BME280;44037;55.638;37.356;2023-04-30T07:02:57;99349.59;;;13.22;46.20
58239;BME280;44037;55.638;37.356;2023-04-30T07:05:27;99365.94;;;13.43;47.06
58239;BME280;44037;55.638;37.356;2023-04-30T07:07:55;99346.75;;;13.59;45.60
58239;BME280;44037;55.638;37.356;2023-04-30T07:10:23;99341.41;;;13.73;46.27
58239;BME280;44037;55.638;37.356;2023-04-30T07:12:50;99345.59;;;13.91;46.18
58239;BME280;44037;55.638;37.356;2023-04-30T07:15:18;99334.22;;;14.00;43.33
58239;BME280;44037;55.638;37.356;2023-04-30T07:17:45;99342.03;;;14.02;44.01
58239;BME280;44037;55.638;37.356;2023-04-30T07:20:12;99331.59;;;14.02;42.91
58239;BME280;44037;55.638;37.356;2023-04-30T07:22:40;99335.94;;;14.03;41.89
58239;BME280;44037;55.638;37.356;2023-04-30T07:25:11;99317.81;;;13.90;42.57
58239;BME280;44037;55.638;37.356;2023-04-30T07:27:38;99316.91;;;13.93;42.58
58239;BME280;44037;55.638;37.356;2023-04-30T07:30:07;99316.03;;;13.98;42.76
58239;BME280;44037;55.638;37.356;2023-04-30T07:32:35;99309.81;;;14.10;42.24
58239;BME280;44037;55.638;37.356;2023-04-30T07:35:05;99314.81;;;14.31;41.68
58239;BME280;44037;55.638;37.356;2023-04-30T07:37:33;99306.91;;;14.37;40.42
58239;BME280;44037;55.638;37.356;2023-04-30T07:40:00;99294.75;;;14.37;41.29
58239;BME280;44037;55.638;37.356;2023-04-30T07:42:30;99300.91;;;14.32;39.75
58239;BME280;44037;55.638;37.356;2023-04-30T07:44:57;99293.13;;;14.25;40.87
58239;BME280;44037;55.638;37.356;2023-04-30T07:47:25;99277.50;;;14.25;40.76
58239;BME280;44037;55.638;37.356;2023-04-30T07:49:52;99270.34;;;14.46;41.20
58239;BME280;44037;55.638;37.356;2023-04-30T07:52:20;99259.72;;;14.62;39.77
58239;BME280;44037;55.638;37.356;2023-04-30T07:54:47;99262.34;;;14.58;40.27
58239;BME280;44037;55.638;37.356;2023-04-30T07:57:14;99263.97;;;14.66;40.49
58239;BME280;44037;55.638;37.356;2023-04-30T07:59:43;99250.19;;;14.57;38.47
58239;BME280;44037;55.638;37.356;2023-04-30T08:02:10;99242.69;;;14.33;39.68
58239;BME280;44037;55.638;37.356;2023-04-30T08:04:37;99255.06;;;14.15;39.51
58239;BME280;44037;55.638;37.356;2023-04-30T08:07:05;99246.50;;;14.04;39.50
58239;BME280;44037;55.638;37.356;2023-04-30T08:09:32;99246.63;;;13.91;39.31
58239;BME280;44037;55.638;37.356;2023-04-30T08:11:59;99228.66;;;13.70;39.81
58239;BME280;44037;55.638;37.356;2023-04-30T08:14:26;99218.47;;;13.48;39.50
58239;BME280;44037;55.638;37.356;2023-04-30T08:16:55;99223.75;;;13.35;39.71
58239;BME280;44037;55.638;37.356;2023-04-30T08:19:24;99196.09;;;13.22;40.38
58239;BME280;44037;55.638;37.356;2023-04-30T08:21:51;99205.69;;;13.15;40.03
58239;BME280;44037;55.638;37.356;2023-04-30T08:24:18;99212.59;;;13.19;40.54
58239;BME280;44037;55.638;37.356;2023-04-30T08:26:46;99205.59;;;13.26;40.43
58239;BME280;44037;55.638;37.356;2023-04-30T08:29:13;99210.84;;;13.21;38.76
58239;BME280;44037;55.638;37.356;2023-04-30T08:31:40;99197.91;;;13.12;39.61
58239;BME280;44037;55.638;37.356;2023-04-30T08:34:09;99194.47;;;13.09;40.28
58239;BME280;44037;55.638;37.356;2023-04-30T08:36:36;99196.16;;;13.13;40.61
58239;BME280;44037;55.638;37.356;2023-04-30T08:39:03;99194.38;;;13.19;40.33
58239;BME280;44037;55.638;37.356;2023-04-30T08:41:31;99182.16;;;13.29;41.03
58239;BME280;44037;55.638;37.356;2023-04-30T08:44:01;99185.69;;;13.22;40.50
58239;BME280;44037;55.638;37.356;2023-04-30T08:46:30;99177.03;;;13.23;41.41
58239;BME280;44037;55.638;37.356;2023-04-30T08:48:58;99166.63;;;13.21;40.83
58239;BME280;44037;55.638;37.356;2023-04-30T08:51:30;99171.78;;;13.25;41.02
58239;BME280;44037;55.638;37.356;2023-04-30T08:53:58;99174.34;;;13.32;41.31
58239;BME280;44037;55.638;37.356;2023-04-30T08:56:25;99160.41;;;13.36;41.36
58239;BME280;44037;55.638;37.356;2023-04-30T08:58:54;99156.06;;;13.42;41.80
58239;BME280;44037;55.638;37.356;2023-04-30T09:01:22;99150.16;;;13.21;40.41
58239;BME280;44037;55.638;37.356;2023-04-30T09:03:49;99151.94;;;13.13;41.33
58239;BME280;44037;55.638;37.356;2023-04-30T09:06:16;99146.88;;;13.02;41.70
58239;BME280;44037;55.638;37.356;2023-04-30T09:08:46;99140.91;;;12.87;42.54
58239;BME280;44037;55.638;37.356;2023-04-30T09:11:21;99138.41;;;12.73;42.90
58239;BME280;44037;55.638;37.356;2023-04-30T09:13:49;99137.63;;;12.64;42.77
58239;BME280;44037;55.638;37.356;2023-04-30T09:16:18;99130.59;;;12.73;43.75
58239;BME280;44037;55.638;37.356;2023-04-30T09:18:45;99134.94;;;12.74;42.70
58239;BME280;44037;55.638;37.356;2023-04-30T09:21:13;99131.56;;;12.63;43.01
58239;BME280;44037;55.638;37.356;2023-04-30T09:23:58;99115.91;;;12.72;44.35
58239;BME280;44037;55.638;37.356;2023-04-30T09:26:29;99109.72;;;12.87;43.87
58239;BME280;44037;55.638;37.356;2023-04-30T09:28:57;99112.25;;;12.95;44.43
58239;BME280;44037;55.638;37.356;2023-04-30T09:31:25;99100.91;;;13.04;43.62
58239;BME280;44037;55.638;37.356;2023-04-30T09:33:53;99094.81;;;13.03;43.21
58239;BME280;44037;55.638;37.356;2023-04-30T09:36:20;99094.03;;;12.97;43.32
58239;BME280;44037;55.638;37.356;2023-04-30T09:38:47;99083.56;;;13.01;44.46
58239;BME280;44037;55.638;37.356;2023-04-30T09:41:23;99086.06;;;13.11;43.98
58239;BME280;44037;55.638;37.356;2023-04-30T09:43:51;99075.00;;;12.93;43.19
58239;BME280;44037;55.638;37.356;2023-04-30T09:46:19;99075.88;;;12.92;43.35
58239;BME280;44037;55.638;37.356;2023-04-30T09:48:48;99062.88;;;12.92;43.34
58239;BME280;44037;55.638;37.356;2023-04-30T09:51:21;99063.66;;;13.00;43.72
58239;BME280;44037;55.638;37.356;2023-04-30T09:53:50;99066.19;;;13.05;43.67
58239;BME280;44037;55.638;37.356;2023-04-30T09:56:20;99074.78;;;13.15;44.59
58239;BME280;44037;55.638;37.356;2023-04-30T09:58:51;99073.81;;;13.27;43.50
58239;BME280;44037;55.638;37.356;2023-04-30T10:01:20;99079.00;;;13.25;43.23
58239;BME280;44037;55.638;37.356;2023-04-30T10:03:47;99074.78;;;13.15;44.24
58239;BME280;44037;55.638;37.356;2023-04-30T10:06:15;99070.44;;;13.14;44.39
58239;BME280;44037;55.638;37.356;2023-04-30T10:08:46;99071.28;;;13.17;44.31
58239;BME280;44037;55.638;37.356;2023-04-30T10:11:17;99080.84;;;13.14;44.79
58239;BME280;44037;55.638;37.356;2023-04-30T10:13:53;99065.31;;;13.09;44.98
58239;BME280;44037;55.638;37.356;2023-04-30T10:16:29;99070.59;;;12.98;43.86
58239;BME280;44037;55.638;37.356;2023-04-30T10:19:03;99073.28;;;12.89;44.31
58239;BME280;44037;55.638;37.356;2023-04-30T10:21:32;99067.31;;;12.81;44.83
58239;BME280;44037;55.638;37.356;2023-04-30T10:24:00;99074.22;;;12.80;44.93
58239;BME280;44037;55.638;37.356;2023-04-30T10:26:29;99066.38;;;12.88;44.27
58239;BME280;44037;55.638;37.356;2023-04-30T10:28:59;99065.38;;;13.01;44.54
58239;BME280;44037;55.638;37.356;2023-04-30T10:31:27;99051.41;;;13.10;44.35
58239;BME280;44037;55.638;37.356;2023-04-30T10:34:05;99066.94;;;13.18;43.79
58239;BME280;44037;55.638;37.356;2023-04-30T10:36:38;99066.09;;;13.16;43.60
58239;BME280;44037;55.638;37.356;2023-04-30T10:39:07;99061.84;;;13.07;43.60
58239;BME280;44037;55.638;37.356;2023-04-30T10:41:34;99063.59;;;13.06;43.26
58239;BME280;44037;55.638;37.356;2023-04-30T10:44:03;99064.38;;;13.15;44.03
58239;BME280;44037;55.638;37.356;2023-04-30T10:46:33;99064.28;;;13.23;43.39
58239;BME280;44037;55.638;37.356;2023-04-30T10:49:00;99061.66;;;13.24;43.02
58239;BME280;44037;55.638;37.356;2023-04-30T10:51:46;99063.34;;;13.31;43.32
58239;BME280;44037;55.638;37.356;2023-04-30T10:54:15;99069.38;;;13.33;42.44
58239;BME280;44037;55.638;37.356;2023-04-30T10:56:44;99061.53;;;13.41;43.15
58239;BME280;44037;55.638;37.356;2023-04-30T10:59:13;99061.34;;;13.55;43.47
58239;BME280;44037;55.638;37.356;2023-04-30T11:01:58;99068.75;;;13.86;43.60
58239;BME280;44037;55.638;37.356;2023-04-30T11:04:26;99064.84;;;14.18;42.53
58239;BME280;44037;55.638;37.356;2023-04-30T11:09:40;99054.09;;;14.95;41.29
58239;BME280;44037;55.638;37.356;2023-04-30T11:12:12;99051.06;;;15.16;40.68
58239;BME280;44037;55.638;37.356;2023-04-30T11:14:42;99044.78;;;15.27;40.25
58239;BME280;44037;55.638;37.356;2023-04-30T11:17:11;99039.44;;;15.33;39.55
58239;BME280;44037;55.638;37.356;2023-04-30T11:19:45;99035.19;;;15.29;38.88
58239;BME280;44037;55.638;37.356;2023-04-30T11:22:23;99030.75;;;15.34;39.56
58239;BME280;44037;55.638;37.356;2023-04-30T11:25:01;99027.03;;;15.44;39.38
58239;BME280;44037;55.638;37.356;2023-04-30T11:27:32;99030.53;;;15.43;39.40
58239;BME280;44037;55.638;37.356;2023-04-30T11:30:02;99007.75;;;15.51;39.44
58239;BME280;44037;55.638;37.356;2023-04-30T11:32:32;99010.28;;;15.56;38.24
58239;BME280;44037;55.638;37.356;2023-04-30T11:35:01;99002.47;;;15.11;52.28
58239;BME280;44037;55.638;37.356;2023-04-30T11:37:31;99004.78;;;14.27;55.51
58239;BME280;44037;55.638;37.356;2023-04-30T11:40:00;99007.75;;;13.39;51.62
58239;BME280;44037;55.638;37.356;2023-04-30T11:42:30;99005.97;;;12.61;49.07
58239;BME280;44037;55.638;37.356;2023-04-30T11:45:05;98991.63;;;12.20;49.70
58239;BME280;44037;55.638;37.356;2023-04-30T11:47:41;98991.66;;;12.15;49.26
58239;BME280;44037;55.638;37.356;2023-04-30T11:50:09;99013.19;;;12.25;47.24
58239;BME280;44037;55.638;37.356;2023-04-30T11:52:37;99001.03;;;12.32;46.83
58239;BME280;44037;55.638;37.356;2023-04-30T11:55:12;98995.72;;;12.47;46.35
58239;BME280;44037;55.638;37.356;2023-04-30T11:57:41;98984.22;;;12.71;46.40
58239;BME280;44037;55.638;37.356;2023-04-30T12:00:15;98991.78;;;12.95;46.41
58239;BME280;44037;55.638;37.356;2023-04-30T12:02:44;98987.91;;;13.30;45.79
58239;BME280;44037;55.638;37.356;2023-04-30T12:05:13;98980.53;;;13.64;45.92
58239;BME280;44037;55.638;37.356;2023-04-30T12:07:45;98974.88;;;13.97;45.86
58239;BME280;44037;55.638;37.356;2023-04-30T12:10:13;98975.44;;;14.16;45.05
58239;BME280;44037;55.638;37.356;2023-04-30T12:12:42;98967.78;;;14.05;42.88
58239;BME280;44037;55.638;37.356;2023-04-30T12:15:13;98967.94;;;13.96;43.23
58239;BME280;44037;55.638;37.356;2023-04-30T12:17:41;98965.44;;;13.88;44.22
58239;BME280;44037;55.638;37.356;2023-04-30T12:20:10;98971.69;;;13.79;43.65
58239;BME280;44037;55.638;37.356;2023-04-30T12:22:38;98967.56;;;13.61;43.42
58239;BME280;44037;55.638;37.356;2023-04-30T12:25:07;98963.53;;;13.40;45.67
58239;BME280;44037;55.638;37.356;2023-04-30T12:27:35;98967.09;;;13.31;46.91
58239;BME280;44037;55.638;37.356;2023-04-30T12:30:04;98975.78;;;13.29;45.20
58239;BME280;44037;55.638;37.356;2023-04-30T12:32:42;98976.72;;;13.21;45.11
58239;BME280;44037;55.638;37.356;2023-04-30T12:35:13;98978.63;;;13.09;45.44
58239;BME280;44037;55.638;37.356;2023-04-30T12:37:42;98983.94;;;12.98;44.85
58239;BME280;44037;55.638;37.356;2023-04-30T12:40:11;98972.91;;;12.77;44.51
58239;BME280;44037;55.638;37.356;2023-04-30T12:42:40;98978.28;;;12.58;43.67
58239;BME280;44037;55.638;37.356;2023-04-30T12:45:08;98981.03;;;12.44;45.68
58239;BME280;44037;55.638;37.356;2023-04-30T12:47:40;98978.44;;;12.41;46.53
58239;BME280;44037;55.638;37.356;2023-04-30T12:50:09;98964.66;;;12.35;46.09
58239;BME280;44037;55.638;37.356;2023-04-30T12:52:38;98961.22;;;12.31;46.06
58239;BME280;44037;55.638;37.356;2023-04-30T12:55:16;98958.63;;;12.31;46.81
58239;BME280;44037;55.638;37.356;2023-04-30T12:58:04;98949.94;;;12.34;46.81
58239;BME280;44037;55.638;37.356;2023-04-30T13:00:47;98958.59;;;12.34;46.54
58239;BME280;44037;55.638;37.356;2023-04-30T13:03:16;98945.56;;;12.37;46.73
58239;BME280;44037;55.638;37.356;2023-04-30T13:05:49;98947.25;;;12.44;47.74